createdAt,value
2018-12-16T00:00:14.033Z,41.70
2018-12-16T00:01:13.997Z,41.13
2018-12-16T00:02:13.962Z,40.66
2018-12-16T00:03:13.930Z,40.75
2018-12-16T00:04:13.888Z,41.98
2018-12-16T00:05:13.858Z,41.70
2018-12-16T00:06:13.818Z,40.19
2018-12-16T00:07:13.779Z,39.43
2018-12-16T00:08:13.746Z,40.19
2018-12-16T00:09:13.709Z,39.62
2018-12-16T00:10:13.673Z,38.86
2018-12-16T00:11:13.641Z,38.20
2018-12-16T00:12:13.601Z,38.01
2018-12-16T00:13:13.566Z,37.44
2018-12-16T00:14:13.732Z,37.25
2018-12-16T00:15:13.492Z,35.74
2018-12-16T00:16:13.458Z,34.80
2018-12-16T00:17:13.422Z,33.85
2018-12-16T00:18:13.387Z,35.08
2018-12-16T00:19:13.356Z,36.02
2018-12-16T00:20:13.313Z,34.61
2018-12-16T00:21:13.281Z,34.04
2018-12-16T00:22:13.243Z,33.47
2018-12-16T00:23:13.209Z,32.62
2018-12-16T00:24:13.260Z,32.24
2018-12-16T00:25:13.135Z,32.71
2018-12-16T00:26:13.099Z,31.96
2018-12-16T00:27:13.062Z,32.62
2018-12-16T00:28:13.027Z,31.10
2018-12-16T00:29:12.992Z,30.63
2018-12-16T00:30:12.957Z,30.44
2018-12-16T00:31:12.919Z,29.88
2018-12-16T00:32:12.885Z,29.88
2018-12-16T00:33:12.848Z,30.05
2018-12-16T00:34:12.817Z,29.79
2018-12-16T00:35:12.775Z,28.82
2018-12-16T00:36:12.741Z,29.20
2018-12-16T00:37:12.706Z,28.08
2018-12-16T00:38:12.675Z,28.44
2018-12-16T00:39:12.633Z,27.40
2018-12-16T00:40:12.597Z,27.78
2018-12-16T00:41:12.560Z,27.97
2018-12-16T00:42:12.526Z,27.40
2018-12-16T00:43:12.489Z,27.22
2018-12-16T00:44:12.452Z,27.78
2018-12-16T00:45:12.418Z,26.93
2018-12-16T00:46:12.380Z,26.93
2018-12-16T00:47:12.344Z,26.37
2018-12-16T00:48:12.310Z,25.80
2018-12-16T00:49:12.276Z,25.51
2018-12-16T00:50:12.238Z,25.80
2018-12-16T00:51:12.204Z,26.27
2018-12-16T00:52:12.163Z,26.18
2018-12-16T00:53:12.136Z,25.70
2018-12-16T00:54:12.090Z,25.04
2018-12-16T00:55:12.055Z,24.01
2018-12-16T00:56:12.017Z,23.72
2018-12-16T00:57:11.981Z,23.91
2018-12-16T00:58:11.946Z,23.72
2018-12-16T00:59:11.908Z,23.44
2018-12-16T01:00:11.874Z,22.20
2018-12-16T01:01:11.837Z,20.51
2018-12-16T01:02:11.801Z,20.41
2018-12-16T01:03:11.766Z,19.75
2018-12-16T01:04:11.727Z,19.75
2018-12-16T01:05:11.893Z,19.56
2018-12-16T01:06:11.655Z,20.13
2018-12-16T01:07:11.655Z,19.84
2018-12-16T01:08:11.588Z,18.71
2018-12-16T01:09:11.547Z,18.71
2018-12-16T01:10:11.509Z,18.15
2018-12-16T01:11:11.473Z,18.24
2018-12-16T01:12:11.439Z,18.62
2018-12-16T01:13:11.480Z,18.33
2018-12-16T01:14:11.367Z,17.96
2018-12-16T01:15:11.326Z,17.67
2018-12-16T01:16:11.307Z,17.77
2018-12-16T01:17:11.256Z,17.96
2018-12-16T01:18:11.223Z,17.29
2018-12-16T01:19:11.183Z,17.10
2018-12-16T01:20:11.147Z,16.25
2018-12-16T01:21:11.109Z,16.44
2018-12-16T01:22:11.076Z,15.69
2018-12-16T01:23:11.040Z,15.12
2018-12-16T01:24:11.001Z,14.55
2018-12-16T01:25:10.963Z,14.84
2018-12-16T01:26:10.929Z,14.55
2018-12-16T01:27:10.892Z,13.42
2018-12-16T01:28:10.867Z,13.23
2018-12-16T01:29:10.816Z,13.98
2018-12-16T01:30:10.786Z,13.60
2018-12-16T01:31:10.743Z,13.32
2018-12-16T01:32:10.711Z,13.32
2018-12-16T01:33:10.678Z,12.47
2018-12-16T01:34:10.645Z,12.66
2018-12-16T01:35:10.758Z,12.95
2018-12-16T01:36:10.561Z,12.57
2018-12-16T01:37:10.530Z,12.76
2018-12-16T01:38:10.495Z,12.66
2018-12-16T01:39:10.451Z,13.32
2018-12-16T01:40:10.416Z,12.85
2018-12-16T01:41:10.380Z,12.95
2018-12-16T01:42:10.343Z,12.85
2018-12-16T01:43:10.306Z,12.66
2018-12-16T01:44:10.269Z,12.76
2018-12-16T01:45:10.241Z,13.32
2018-12-16T01:46:10.198Z,12.85
2018-12-16T01:47:10.159Z,13.32
2018-12-16T01:48:10.124Z,13.89
2018-12-16T01:49:10.091Z,13.70
2018-12-16T01:50:10.053Z,13.04
2018-12-16T01:51:10.015Z,12.95
2018-12-16T01:52:09.977Z,12.57
2018-12-16T01:53:09.942Z,12.10
2018-12-16T01:54:09.906Z,11.53
2018-12-16T01:55:09.878Z,11.81
2018-12-16T01:56:09.833Z,11.53
2018-12-16T01:57:09.795Z,12.28
2018-12-16T01:58:09.859Z,12.28
2018-12-16T01:59:09.723Z,12.19
2018-12-16T02:00:09.686Z,12.47
2018-12-16T02:01:09.649Z,12.57
2018-12-16T02:02:09.622Z,13.04
2018-12-16T02:03:09.577Z,12.57
2018-12-16T02:04:09.541Z,12.66
2018-12-16T02:05:09.510Z,12.76
2018-12-16T02:06:09.467Z,12.57
2018-12-16T02:07:09.434Z,12.66
2018-12-16T02:08:09.394Z,12.57
2018-12-16T02:09:09.358Z,12.85
2018-12-16T02:10:09.324Z,12.66
2018-12-16T02:11:09.283Z,13.89
2018-12-16T02:12:09.254Z,14.08
2018-12-16T02:13:09.212Z,15.31
2018-12-16T02:14:09.176Z,15.78
2018-12-16T02:15:09.139Z,16.63
2018-12-16T02:16:09.105Z,17.21
2018-12-16T02:17:09.065Z,18.43
2018-12-16T02:18:09.031Z,19.48
2018-12-16T02:19:08.993Z,20.22
2018-12-16T02:20:08.958Z,21.37
2018-12-16T02:21:08.924Z,22.49
2018-12-16T02:22:08.891Z,23.63
2018-12-16T02:23:08.852Z,23.25
2018-12-16T02:24:08.814Z,23.64
2018-12-16T02:25:08.777Z,23.64
2018-12-16T02:26:08.741Z,23.73
2018-12-16T02:27:08.714Z,23.26
2018-12-16T02:28:08.668Z,23.83
2018-12-16T02:29:08.630Z,24.11
2018-12-16T02:30:08.598Z,25.05
2018-12-16T02:31:08.561Z,25.04
2018-12-16T02:32:08.523Z,24.96
2018-12-16T02:33:08.487Z,25.15
2018-12-16T02:34:08.452Z,25.05
2018-12-16T02:35:08.415Z,24.96
2018-12-16T02:36:08.382Z,25.52
2018-12-16T02:37:08.348Z,25.34
2018-12-16T02:38:08.307Z,24.49
2018-12-16T02:39:08.269Z,24.68
2018-12-16T02:40:08.235Z,24.87
2018-12-16T02:41:08.200Z,25.15
2018-12-16T02:42:08.163Z,24.68
2018-12-16T02:43:08.131Z,24.77
2018-12-16T02:44:08.089Z,24.39
2018-12-16T02:45:08.053Z,23.92
2018-12-16T02:46:08.019Z,24.96
2018-12-16T02:47:07.998Z,28.16
2018-12-16T02:48:07.945Z,28.55
2018-12-16T02:49:07.925Z,28.27
2018-12-16T02:50:07.874Z,29.12
2018-12-16T02:51:07.856Z,29.41
2018-12-16T02:52:07.801Z,29.97
2018-12-16T02:53:07.765Z,31.10
2018-12-16T02:54:07.755Z,31.58
2018-12-16T02:55:07.693Z,31.48
2018-12-16T02:56:07.661Z,31.96
2018-12-16T02:57:07.621Z,32.15
2018-12-16T02:58:07.586Z,32.89
2018-12-16T02:59:07.548Z,32.42
2018-12-16T03:00:07.512Z,31.75
2018-12-16T03:01:07.475Z,30.52
2018-12-16T03:02:07.440Z,29.79
2018-12-16T03:03:07.407Z,29.22
2018-12-16T03:04:07.373Z,27.87
2018-12-16T03:05:07.331Z,27.69
2018-12-16T03:06:07.298Z,27.50
2018-12-16T03:07:07.262Z,27.69
2018-12-16T03:08:07.222Z,27.87
2018-12-16T03:09:07.185Z,27.89
2018-12-16T03:10:07.201Z,27.69
2018-12-16T03:11:07.129Z,26.75
2018-12-16T03:12:07.077Z,27.03
2018-12-16T03:13:07.043Z,27.69
2018-12-16T03:14:07.004Z,29.68
2018-12-16T03:15:06.968Z,29.97
2018-12-16T03:16:06.931Z,29.39
2018-12-16T03:17:06.895Z,30.71
2018-12-16T03:18:06.866Z,30.80
2018-12-16T03:19:06.822Z,30.71
2018-12-16T03:20:06.787Z,30.15
2018-12-16T03:21:06.750Z,29.58
2018-12-16T03:22:06.712Z,29.01
2018-12-16T03:23:12.219Z,28.16
2018-12-16T03:24:06.640Z,26.75
2018-12-16T03:25:06.604Z,26.75
2018-12-16T03:26:06.577Z,25.89
2018-12-16T03:27:06.530Z,25.70
2018-12-16T03:28:06.496Z,25.42
2018-12-16T03:29:06.459Z,24.76
2018-12-16T03:30:06.439Z,24.01
2018-12-16T03:31:06.389Z,23.91
2018-12-16T03:32:06.349Z,23.82
2018-12-16T03:33:06.313Z,24.01
2018-12-16T03:34:06.277Z,24.01
2018-12-16T03:35:06.239Z,24.95
2018-12-16T03:36:06.205Z,27.12
2018-12-16T03:37:06.173Z,28.25
2018-12-16T03:38:06.130Z,29.11
2018-12-16T03:39:06.093Z,29.11
2018-12-16T03:40:06.065Z,29.58
2018-12-16T03:41:06.023Z,30.33
2018-12-16T03:42:05.987Z,30.43
2018-12-16T03:43:05.950Z,30.80
2018-12-16T03:44:05.914Z,31.09
2018-12-16T03:45:05.877Z,30.80
2018-12-16T03:46:05.848Z,30.91
2018-12-16T03:47:05.805Z,30.82
2018-12-16T03:48:05.769Z,30.33
2018-12-16T03:49:05.733Z,29.88
2018-12-16T03:50:05.698Z,30.26
2018-12-16T03:51:05.660Z,29.79
2018-12-16T03:52:05.635Z,28.84
2018-12-16T03:53:05.589Z,28.36
2018-12-16T03:54:05.553Z,28.74
2018-12-16T03:55:05.519Z,28.84
2018-12-16T03:56:05.481Z,28.84
2018-12-16T03:57:05.445Z,28.65
2018-12-16T03:58:05.411Z,29.69
2018-12-16T03:59:05.372Z,29.22
2018-12-16T04:00:05.335Z,28.65
2018-12-16T04:01:05.300Z,29.69
2018-12-16T04:02:05.266Z,30.63
2018-12-16T04:03:05.228Z,30.26
2018-12-16T04:04:05.195Z,30.07
2018-12-16T04:05:05.157Z,31.10
2018-12-16T04:06:05.120Z,32.53
2018-12-16T04:07:05.237Z,33.37
2018-12-16T04:08:05.048Z,32.71
2018-12-16T04:09:05.012Z,34.32
2018-12-16T04:10:04.981Z,34.51
2018-12-16T04:11:04.941Z,35.17
2018-12-16T04:12:04.906Z,35.83
2018-12-16T04:13:04.874Z,36.40
2018-12-16T04:14:04.834Z,35.83
2018-12-16T04:15:04.804Z,36.68
2018-12-16T04:16:04.763Z,37.73
2018-12-16T04:17:04.728Z,37.73
2018-12-16T04:18:04.690Z,38.01
2018-12-16T04:19:04.653Z,38.20
2018-12-16T04:20:04.626Z,38.39
2018-12-16T04:21:04.584Z,39.62
2018-12-16T04:22:04.547Z,39.43
2018-12-16T04:23:04.511Z,41.70
2018-12-16T04:24:04.475Z,42.17
2018-12-16T04:25:04.440Z,43.02
2018-12-16T04:26:04.405Z,44.34
2018-12-16T04:27:04.369Z,46.04
2018-12-16T04:28:04.332Z,46.71
2018-12-16T04:29:04.299Z,49.26
2018-12-16T04:30:04.265Z,50.30
2018-12-16T04:31:04.227Z,50.96
2018-12-16T04:32:04.191Z,51.34
2018-12-16T04:33:04.162Z,51.15
2018-12-16T04:34:04.119Z,53.05
2018-12-16T04:35:04.082Z,52.86
2018-12-16T04:36:04.047Z,53.70
2018-12-16T04:37:04.011Z,54.55
2018-12-16T04:38:03.976Z,55.12
2018-12-16T04:39:03.944Z,56.35
2018-12-16T04:40:03.903Z,56.45
2018-12-16T04:41:03.868Z,57.49
2018-12-16T04:42:03.839Z,55.79
2018-12-16T04:43:03.798Z,55.69
2018-12-16T04:44:03.762Z,56.07
2018-12-16T04:45:03.725Z,58.06
2018-12-16T04:46:03.690Z,57.68
2018-12-16T04:47:03.655Z,57.68
2018-12-16T04:48:03.618Z,56.35
2018-12-16T04:49:03.581Z,58.34
2018-12-16T04:50:03.545Z,58.72
2018-12-16T04:51:03.512Z,60.70
2018-12-16T04:52:03.475Z,60.42
2018-12-16T04:53:03.442Z,61.46
2018-12-16T04:54:03.405Z,61.65
2018-12-16T04:55:03.372Z,61.08
2018-12-16T04:56:03.333Z,61.18
2018-12-16T04:57:03.305Z,60.61
2018-12-16T04:58:03.260Z,62.02
2018-12-16T04:59:03.225Z,61.77
2018-12-16T05:00:03.189Z,62.82
2018-12-16T05:01:03.153Z,63.01
2018-12-16T05:02:03.119Z,62.53
2018-12-16T05:03:03.082Z,62.06
2018-12-16T05:04:03.048Z,61.40
2018-12-16T05:05:03.012Z,62.25
2018-12-16T05:06:02.979Z,63.39
2018-12-16T05:07:02.941Z,63.85
2018-12-16T05:08:02.905Z,64.04
2018-12-16T05:09:02.869Z,61.74
2018-12-16T05:10:02.848Z,61.77
2018-12-16T05:11:02.801Z,60.33
2018-12-16T05:12:02.764Z,60.74
2018-12-16T05:13:02.729Z,61.21
2018-12-16T05:14:02.694Z,61.30
2018-12-16T05:15:02.666Z,60.74
2018-12-16T05:16:02.623Z,60.23
2018-12-16T05:17:02.590Z,58.84
2018-12-16T05:18:02.554Z,57.61
2018-12-16T05:19:02.517Z,57.87
2018-12-16T05:20:02.488Z,58.09
2018-12-16T05:21:02.445Z,57.96
2018-12-16T05:22:02.411Z,58.06
2018-12-16T05:23:02.376Z,57.30
2018-12-16T05:24:02.339Z,57.39
2018-12-16T05:25:02.305Z,58.15
2018-12-16T05:26:02.269Z,58.06
2018-12-16T05:27:02.235Z,58.91
2018-12-16T05:28:02.200Z,58.91
2018-12-16T05:29:02.163Z,58.91
2018-12-16T05:30:02.127Z,58.75
2018-12-16T05:31:02.091Z,58.47
2018-12-16T05:32:02.056Z,57.80
2018-12-16T05:33:02.020Z,57.04
2018-12-16T05:34:01.991Z,57.33
2018-12-16T05:35:01.948Z,57.42
2018-12-16T05:36:01.926Z,56.95
2018-12-16T05:37:01.881Z,59.03
2018-12-16T05:38:01.845Z,59.12
2018-12-16T05:39:01.808Z,59.19
2018-12-16T05:40:01.772Z,58.09
2018-12-16T05:41:01.736Z,56.95
2018-12-16T05:42:01.700Z,56.01
2018-12-16T05:43:01.664Z,59.03
2018-12-16T05:44:01.629Z,59.03
2018-12-16T05:45:01.596Z,59.12
2018-12-16T05:46:01.711Z,58.94
2018-12-16T05:47:01.522Z,59.79
2018-12-16T05:48:01.488Z,60.07
2018-12-16T05:49:01.454Z,60.36
2018-12-16T05:50:01.416Z,60.74
2018-12-16T05:51:01.398Z,61.11
2018-12-16T05:52:01.345Z,61.30
2018-12-16T05:53:01.312Z,61.96
2018-12-16T05:54:01.276Z,62.69
2018-12-16T05:55:01.241Z,61.96
2018-12-16T05:56:01.218Z,61.49
2018-12-16T05:57:01.179Z,62.82
2018-12-16T05:58:01.136Z,62.53
2018-12-16T05:59:01.099Z,62.82
2018-12-16T06:00:01.063Z,62.53
2018-12-16T06:01:01.028Z,62.53
2018-12-16T06:02:00.993Z,62.34
2018-12-16T06:03:00.967Z,64.42
2018-12-16T06:04:00.920Z,64.14
2018-12-16T06:05:00.887Z,65.66
2018-12-16T06:06:00.849Z,65.94
2018-12-16T06:07:00.813Z,67.64
2018-12-16T06:08:00.897Z,67.55
2018-12-16T06:09:00.745Z,67.83
2018-12-16T06:10:00.709Z,67.36
2018-12-16T06:11:00.675Z,66.79
2018-12-16T06:12:00.636Z,67.36
2018-12-16T06:13:00.602Z,68.49
2018-12-16T06:14:00.567Z,68.30
2018-12-16T06:15:00.534Z,67.74
2018-12-16T06:16:00.495Z,69.53
2018-12-16T06:17:00.460Z,71.42
2018-12-16T06:18:00.425Z,71.80
2018-12-16T06:19:00.386Z,71.23
2018-12-16T06:20:00.353Z,71.14
2018-12-16T06:21:00.318Z,71.80
2018-12-16T06:22:00.281Z,69.82
2018-12-16T06:23:00.245Z,69.15
2018-12-16T06:24:00.213Z,69.06
2018-12-16T06:25:00.174Z,69.53
2018-12-16T06:26:00.139Z,71.52
2018-12-16T06:27:00.106Z,71.90
2018-12-16T06:28:00.068Z,71.42
2018-12-16T06:29:00.034Z,72.18
2018-12-16T06:29:59.998Z,72.47
2018-12-16T06:30:59.961Z,72.85
2018-12-16T06:31:59.926Z,71.99
2018-12-16T06:32:59.889Z,73.03
2018-12-16T06:33:59.855Z,72.66
2018-12-16T06:34:59.819Z,71.23
2018-12-16T06:35:59.783Z,69.72
2018-12-16T06:36:59.748Z,70.76
2018-12-16T06:37:59.714Z,70.29
2018-12-16T06:38:59.677Z,70.48
2018-12-16T06:39:59.640Z,70.20
2018-12-16T06:40:59.605Z,69.91
2018-12-16T06:41:59.573Z,69.25
2018-12-16T06:42:59.535Z,69.82
2018-12-16T06:43:59.502Z,70.01
2018-12-16T06:44:59.463Z,68.96
2018-12-16T06:45:59.434Z,67.64
2018-12-16T06:46:59.391Z,67.55
2018-12-16T06:47:59.355Z,66.41
2018-12-16T06:48:59.332Z,66.13
2018-12-16T06:49:59.295Z,65.18
2018-12-16T06:50:59.255Z,65.37
2018-12-16T06:51:59.217Z,64.04
2018-12-16T06:52:59.178Z,63.39
2018-12-16T06:54:02.434Z,62.63
2018-12-16T06:54:59.105Z,63.57
2018-12-16T06:55:59.070Z,63.20
2018-12-16T06:56:59.037Z,62.63
2018-12-16T06:57:59.000Z,61.96
2018-12-16T06:58:58.964Z,62.25
2018-12-16T06:59:58.928Z,62.63
2018-12-16T07:00:58.893Z,61.87
2018-12-16T07:01:58.868Z,60.64
2018-12-16T07:02:58.820Z,59.79
2018-12-16T07:03:58.786Z,59.98
2018-12-16T07:04:58.750Z,59.50
2018-12-16T07:05:58.714Z,58.94
2018-12-16T07:06:58.693Z,60.17
2018-12-16T07:07:58.654Z,59.98
2018-12-16T07:08:58.608Z,59.22
2018-12-16T07:09:58.575Z,58.37
2018-12-16T07:10:58.536Z,57.04
2018-12-16T07:11:58.512Z,56.85
2018-12-16T07:12:58.967Z,56.85
2018-12-16T07:13:58.430Z,57.33
2018-12-16T07:14:58.395Z,56.76
2018-12-16T07:15:58.359Z,56.10
2018-12-16T07:16:58.331Z,55.15
2018-12-16T07:17:58.290Z,56.38
2018-12-16T07:18:58.259Z,56.76
2018-12-16T07:19:58.217Z,56.95
2018-12-16T07:20:58.185Z,56.48
2018-12-16T07:21:58.151Z,55.72
2018-12-16T07:22:58.110Z,58.18
2018-12-16T07:23:58.074Z,57.52
2018-12-16T07:24:58.039Z,56.67
2018-12-16T07:25:58.014Z,57.52
2018-12-16T07:26:57.967Z,56.76
2018-12-16T07:27:58.004Z,55.72
2018-12-16T07:28:57.898Z,56.10
2018-12-16T07:29:57.874Z,56.20
2018-12-16T07:30:57.851Z,55.15
2018-12-16T07:31:57.828Z,56.29
2018-12-16T07:32:57.760Z,57.61
2018-12-16T07:33:57.738Z,58.75
2018-12-16T07:34:57.707Z,58.65
2018-12-16T07:35:57.649Z,59.50
2018-12-16T07:36:57.618Z,60.07
2018-12-16T07:37:57.591Z,59.79
2018-12-16T07:38:57.542Z,60.07
2018-12-16T07:39:57.512Z,60.64
2018-12-16T07:40:57.474Z,60.17
2018-12-16T07:41:57.437Z,57.90
2018-12-16T07:42:57.441Z,58.09
2018-12-16T07:43:57.387Z,58.56
2018-12-16T07:44:57.343Z,58.84
2018-12-16T07:45:57.296Z,57.61
2018-12-16T07:46:57.288Z,57.42
2018-12-16T07:47:57.248Z,57.71
2018-12-16T07:48:57.204Z,57.90
2018-12-16T07:49:57.157Z,59.22
2018-12-16T07:50:57.150Z,58.84
2018-12-16T07:51:57.093Z,57.33
2018-12-16T07:52:57.181Z,58.18
2018-12-16T07:53:57.010Z,58.94
2018-12-16T07:54:56.984Z,59.88
2018-12-16T07:55:56.940Z,60.64
2018-12-16T07:56:56.910Z,60.07
2018-12-16T07:57:56.868Z,61.30
2018-12-16T07:58:56.835Z,61.96
2018-12-16T07:59:56.798Z,62.72
2018-12-16T08:00:56.763Z,63.48
2018-12-16T08:01:56.734Z,62.25
2018-12-16T08:02:56.692Z,64.42
2018-12-16T08:03:56.655Z,65.47
2018-12-16T08:04:56.621Z,66.88
2018-12-16T08:05:56.585Z,68.49
2018-12-16T08:06:56.550Z,68.59
2018-12-16T08:07:56.514Z,66.31
2018-12-16T08:08:56.479Z,66.98
2018-12-16T08:09:56.445Z,68.68
2018-12-16T08:10:56.407Z,68.77
2018-12-16T08:11:56.373Z,68.68
2018-12-16T08:12:56.339Z,69.06
2018-12-16T08:13:56.306Z,69.53
2018-12-16T08:14:56.271Z,71.23
2018-12-16T08:15:56.232Z,71.04
2018-12-16T08:16:56.204Z,70.29
2018-12-16T08:17:56.162Z,71.42
2018-12-16T08:18:56.125Z,71.80
2018-12-16T08:19:56.090Z,72.56
2018-12-16T08:20:56.056Z,72.56
2018-12-16T08:21:56.021Z,71.52
2018-12-16T08:22:55.991Z,71.90
2018-12-16T08:23:55.953Z,71.42
2018-12-16T08:24:55.915Z,73.88
2018-12-16T08:25:55.888Z,72.75
2018-12-16T08:26:55.845Z,73.41
2018-12-16T08:27:55.809Z,74.36
2018-12-16T08:28:55.774Z,74.45
2018-12-16T08:29:55.895Z,74.07
2018-12-16T08:30:55.702Z,75.68
2018-12-16T08:31:55.672Z,74.17
2018-12-16T08:32:55.635Z,74.74
2018-12-16T08:33:55.599Z,76.63
2018-12-16T08:34:55.562Z,79.56
2018-12-16T08:35:55.528Z,80.04
2018-12-16T08:36:55.494Z,79.56
2018-12-16T08:37:55.458Z,81.36
2018-12-16T08:38:55.429Z,83.06
2018-12-16T08:39:55.387Z,82.68
2018-12-16T08:40:55.353Z,81.64
2018-12-16T08:41:55.319Z,80.79
2018-12-16T08:42:55.285Z,82.31
2018-12-16T08:43:55.250Z,84.67
2018-12-16T08:44:55.214Z,86.18
2018-12-16T08:45:55.183Z,86.18
2018-12-16T08:46:55.142Z,86.47
2018-12-16T08:47:55.107Z,86.09
2018-12-16T08:48:55.071Z,85.99
2018-12-16T08:49:55.040Z,85.90
2018-12-16T08:50:55.002Z,87.32
2018-12-16T08:51:54.969Z,87.70
2018-12-16T08:52:54.933Z,89.87
2018-12-16T08:53:54.898Z,91.10
2018-12-16T08:54:54.863Z,92.24
2018-12-16T08:55:54.828Z,93.47
2018-12-16T08:56:54.792Z,95.93
2018-12-16T08:57:54.758Z,94.60
2018-12-16T08:58:54.722Z,93.37
2018-12-16T08:59:54.691Z,93.75
2018-12-16T09:00:54.653Z,96.02
2018-12-16T09:01:54.617Z,96.40
2018-12-16T09:02:54.582Z,96.97
2018-12-16T09:03:54.548Z,97.53
2018-12-16T09:04:54.514Z,99.99
2018-12-16T09:05:54.483Z,98.86
2018-12-16T09:06:54.443Z,99.90
2018-12-16T09:07:54.408Z,99.99
2018-12-16T09:08:54.373Z,99.99
2018-12-16T09:09:54.342Z,99.99
2018-12-16T09:10:54.302Z,99.99
2018-12-16T09:11:54.270Z,99.80
2018-12-16T09:12:54.237Z,99.99
2018-12-16T09:13:54.199Z,99.99
2018-12-16T09:14:54.166Z,99.99
2018-12-16T09:15:54.132Z,99.99
2018-12-16T09:16:54.096Z,99.99
2018-12-16T09:17:54.060Z,99.99
2018-12-16T09:18:54.024Z,99.99
2018-12-16T09:19:53.989Z,99.99
2018-12-16T09:20:53.956Z,99.99
2018-12-16T09:21:53.924Z,99.99
2018-12-16T09:22:53.886Z,99.99
2018-12-16T09:23:53.850Z,99.99
2018-12-16T09:24:53.816Z,99.99
2018-12-16T09:25:53.784Z,99.99
2018-12-16T09:26:53.749Z,99.99
2018-12-16T09:27:53.718Z,99.99
2018-12-16T09:28:53.679Z,99.99
2018-12-16T09:29:53.645Z,99.99
2018-12-16T09:30:58.006Z,99.99
2018-12-16T09:31:53.574Z,99.99
2018-12-16T09:32:53.540Z,99.99
2018-12-16T09:33:53.513Z,99.99
2018-12-16T09:34:53.470Z,99.99
2018-12-16T09:35:53.439Z,99.99
2018-12-16T09:36:53.410Z,99.99
2018-12-16T09:37:53.374Z,99.99
2018-12-16T09:38:53.331Z,99.99
2018-12-16T09:39:53.296Z,99.99
2018-12-16T09:40:53.269Z,99.99
2018-12-16T09:41:53.228Z,99.99
2018-12-16T09:42:53.197Z,99.99
2018-12-16T09:43:53.160Z,99.99
2018-12-16T09:44:53.275Z,99.99
2018-12-16T09:45:53.090Z,99.99
2018-12-16T09:46:53.055Z,99.99
2018-12-16T09:47:53.020Z,99.99
2018-12-16T09:48:52.985Z,99.99
2018-12-16T09:49:52.954Z,99.99
2018-12-16T09:50:52.917Z,99.99
2018-12-16T09:51:52.885Z,99.99
2018-12-16T09:52:52.848Z,99.99
2018-12-16T09:53:52.813Z,99.99
2018-12-16T09:54:52.779Z,99.99
2018-12-16T09:55:52.744Z,99.99
2018-12-16T09:56:52.710Z,99.99
2018-12-16T09:57:52.676Z,99.99
2018-12-16T09:58:52.644Z,99.99
2018-12-16T09:59:52.618Z,99.99
2018-12-16T10:00:52.574Z,99.99
2018-12-16T10:01:52.537Z,99.99
2018-12-16T10:02:52.506Z,99.99
2018-12-16T10:03:52.476Z,99.99
2018-12-16T10:04:52.434Z,99.99
2018-12-16T10:05:52.401Z,99.99
2018-12-16T10:06:52.365Z,99.99
2018-12-16T10:07:52.332Z,99.99
2018-12-16T10:08:52.306Z,99.99
2018-12-16T10:09:52.262Z,99.99
2018-12-16T10:10:52.230Z,99.99
2018-12-16T10:11:52.193Z,99.99
2018-12-16T10:12:52.163Z,99.99
2018-12-16T10:13:52.125Z,99.99
2018-12-16T10:14:52.089Z,99.99
2018-12-16T10:15:52.061Z,99.99
2018-12-16T10:16:52.028Z,99.99
2018-12-16T10:17:51.989Z,99.99
2018-12-16T10:18:51.952Z,99.99
2018-12-16T10:19:51.916Z,99.99
2018-12-16T10:20:51.885Z,99.99
2018-12-16T10:21:51.849Z,99.99
2018-12-16T10:22:51.844Z,99.99
2018-12-16T10:23:51.784Z,99.99
2018-12-16T10:24:51.790Z,99.99
2018-12-16T10:25:51.735Z,99.99
2018-12-16T10:26:51.677Z,99.99
2018-12-16T10:27:51.645Z,99.99
2018-12-16T10:28:51.607Z,99.99
2018-12-16T10:29:51.579Z,99.99
2018-12-16T10:30:51.539Z,99.99
2018-12-16T10:31:51.533Z,99.99
2018-12-16T10:32:51.474Z,99.99
2018-12-16T10:33:51.462Z,99.99
2018-12-16T10:34:51.401Z,99.99
2018-12-16T10:35:51.401Z,99.99
2018-12-16T10:36:51.331Z,99.99
2018-12-16T10:37:51.298Z,99.99
2018-12-16T10:38:51.262Z,99.99
2018-12-16T10:39:51.228Z,99.99
2018-12-16T10:40:51.199Z,99.99
2018-12-16T10:41:51.158Z,99.99
2018-12-16T10:42:51.126Z,99.99
2018-12-16T10:43:51.090Z,99.99
2018-12-16T10:44:51.060Z,99.99
2018-12-16T10:45:51.022Z,99.99
2018-12-16T10:46:50.984Z,99.99
2018-12-16T10:47:50.953Z,99.99
2018-12-16T10:48:50.916Z,99.99
2018-12-16T10:49:50.887Z,99.99
2018-12-16T10:50:50.847Z,99.99
2018-12-16T10:51:50.814Z,99.99
2018-12-16T10:52:50.778Z,99.99
2018-12-16T10:53:50.751Z,99.99
2018-12-16T10:54:50.712Z,99.99
2018-12-16T10:55:50.676Z,99.99
2018-12-16T10:56:50.641Z,99.99
2018-12-16T10:57:50.609Z,99.99
2018-12-16T10:58:50.572Z,99.99
2018-12-16T10:59:50.538Z,99.99
2018-12-16T11:00:50.503Z,99.99
2018-12-16T11:01:50.470Z,99.99
2018-12-16T11:02:50.446Z,99.99
2018-12-16T11:03:50.404Z,99.99
2018-12-16T11:04:50.367Z,99.99
2018-12-16T11:05:50.332Z,99.99
2018-12-16T11:06:50.299Z,99.99
2018-12-16T11:07:50.265Z,99.99
2018-12-16T11:08:50.231Z,99.99
2018-12-16T11:09:50.202Z,99.99
2018-12-16T11:10:50.166Z,99.99
2018-12-16T11:11:50.127Z,99.99
2018-12-16T11:12:50.094Z,99.99
2018-12-16T11:13:50.060Z,99.99
2018-12-16T11:14:50.027Z,99.99
2018-12-16T11:15:49.992Z,99.99
2018-12-16T11:16:49.959Z,99.99
2018-12-16T11:17:49.923Z,99.99
2018-12-16T11:18:49.890Z,99.99
2018-12-16T11:19:49.855Z,99.99
2018-12-16T11:20:49.825Z,99.99
2018-12-16T11:21:49.788Z,99.99
2018-12-16T11:22:49.756Z,99.99
2018-12-16T11:23:53.798Z,99.99
2018-12-16T11:24:49.687Z,99.99
2018-12-16T11:25:49.652Z,99.99
2018-12-16T11:26:49.619Z,99.99
2018-12-16T11:27:49.589Z,99.99
2018-12-16T11:28:49.559Z,99.99
2018-12-16T11:29:49.519Z,99.99
2018-12-16T11:30:49.483Z,99.99
2018-12-16T11:31:49.452Z,99.99
2018-12-16T11:32:49.417Z,99.99
2018-12-16T11:33:49.391Z,99.99
2018-12-16T11:34:49.353Z,99.99
2018-12-16T11:35:49.314Z,99.99
2018-12-16T11:36:49.282Z,99.99
2018-12-16T11:37:49.253Z,99.99
2018-12-16T11:38:49.216Z,99.99
2018-12-16T11:39:49.181Z,99.99
2018-12-16T11:40:49.146Z,99.99
2018-12-16T11:41:49.113Z,99.99
2018-12-16T11:42:49.083Z,99.99
2018-12-16T11:43:49.046Z,99.99
2018-12-16T11:44:49.012Z,99.99
2018-12-16T11:45:48.979Z,99.99
2018-12-16T11:46:48.944Z,99.99
2018-12-16T11:47:48.913Z,99.99
2018-12-16T11:48:48.878Z,99.99
2018-12-16T11:49:48.844Z,99.99
2018-12-16T11:50:48.814Z,99.99
2018-12-16T11:51:48.776Z,99.99
2018-12-16T11:52:48.744Z,99.99
2018-12-16T11:53:48.711Z,99.99
2018-12-16T11:54:48.676Z,99.99
2018-12-16T11:55:48.643Z,99.99
2018-12-16T11:56:48.613Z,99.99
2018-12-16T11:57:48.576Z,99.99
2018-12-16T11:58:48.542Z,99.99
2018-12-16T11:59:48.508Z,99.99
2018-12-16T12:00:48.474Z,99.99
2018-12-16T12:01:48.448Z,99.99
2018-12-16T12:02:48.408Z,99.99
2018-12-16T12:03:48.376Z,99.99
2018-12-16T12:04:48.342Z,99.99
2018-12-16T12:05:48.309Z,99.99
2018-12-16T12:06:48.275Z,99.99
2018-12-16T12:07:48.241Z,99.99
2018-12-16T12:08:48.209Z,99.99
2018-12-16T12:09:48.179Z,99.99
2018-12-16T12:10:48.142Z,99.99
2018-12-16T12:11:48.107Z,99.99
2018-12-16T12:12:48.074Z,99.99
2018-12-16T12:13:48.041Z,99.99
2018-12-16T12:14:48.020Z,99.99
2018-12-16T12:15:47.975Z,99.99
2018-12-16T12:16:47.942Z,99.99
2018-12-16T12:17:47.907Z,99.99
2018-12-16T12:18:47.874Z,99.99
2018-12-16T12:19:47.845Z,99.99
2018-12-16T12:20:47.808Z,99.99
2018-12-16T12:21:47.776Z,99.99
2018-12-16T12:22:47.747Z,99.99
2018-12-16T12:23:47.709Z,99.99
2018-12-16T12:24:47.675Z,99.99
2018-12-16T12:25:47.642Z,99.99
2018-12-16T12:26:47.609Z,99.99
2018-12-16T12:27:47.574Z,99.99
2018-12-16T12:28:47.540Z,99.99
2018-12-16T12:29:47.507Z,99.99
2018-12-16T12:30:47.472Z,99.99
2018-12-16T12:31:47.443Z,99.99
2018-12-16T12:32:49.158Z,99.99
2018-12-16T12:33:47.374Z,99.99
2018-12-16T12:34:47.347Z,99.99
2018-12-16T12:35:47.304Z,99.99
2018-12-16T12:36:47.279Z,99.99
2018-12-16T12:37:47.239Z,99.99
2018-12-16T12:38:47.206Z,99.99
2018-12-16T12:39:47.170Z,99.99
2018-12-16T12:40:47.136Z,99.99
2018-12-16T12:41:47.102Z,99.99
2018-12-16T12:42:47.068Z,99.99
2018-12-16T12:43:47.034Z,99.99
2018-12-16T12:44:47.001Z,99.99
2018-12-16T12:45:46.967Z,99.99
2018-12-16T12:46:46.933Z,99.99
2018-12-16T12:47:46.899Z,99.99
2018-12-16T12:48:46.874Z,99.99
2018-12-16T12:49:46.830Z,99.99
2018-12-16T12:50:46.797Z,99.99
2018-12-16T12:51:46.762Z,99.99